createdAt,value
2022-07-31T00:01:21.921Z,20.77
2022-07-31T00:03:48.685Z,25.50
2022-07-31T00:06:15.486Z,18.25
2022-07-31T00:08:42.187Z,20.40
2022-07-31T00:11:11.684Z,19.42
2022-07-31T00:13:57.339Z,23.20
2022-07-31T00:16:25.962Z,21.95
2022-07-31T00:18:52.912Z,18.88
2022-07-31T00:21:19.752Z,21.77
2022-07-31T00:23:46.489Z,21.60
2022-07-31T00:26:13.223Z,27.77
2022-07-31T00:28:39.932Z,21.48
2022-07-31T00:31:06.612Z,21.73
2022-07-31T00:33:33.327Z,20.52
2022-07-31T00:36:00.024Z,18.88
2022-07-31T00:38:27.689Z,23.88
2022-07-31T00:40:54.778Z,23.08
2022-07-31T00:43:21.807Z,23.88
2022-07-31T00:45:53.208Z,28.55
2022-07-31T00:48:26.065Z,23.80
2022-07-31T00:50:55.086Z,27.83
2022-07-31T00:53:21.836Z,33.53
2022-07-31T00:55:51.291Z,22.15
2022-07-31T00:58:20.755Z,22.52
2022-07-31T01:00:48.084Z,23.55
2022-07-31T01:03:15.496Z,27.70
2022-07-31T01:05:42.302Z,23.63
2022-07-31T01:08:09.049Z,23.15
2022-07-31T01:10:49.993Z,27.00
2022-07-31T01:13:25.690Z,33.60
2022-07-31T01:15:53.182Z,43.13
2022-07-31T01:18:21.075Z,27.40
2022-07-31T01:20:48.946Z,36.08
2022-07-31T01:23:54.872Z,38.55
2022-07-31T01:26:35.401Z,31.70
2022-07-31T01:29:10.003Z,34.00
2022-07-31T01:31:42.476Z,32.40
2022-07-31T01:34:14.621Z,35.13
2022-07-31T01:36:46.459Z,32.53
2022-07-31T01:39:13.392Z,33.85
2022-07-31T01:41:43.675Z,30.83
2022-07-31T01:44:14.253Z,29.95
2022-07-31T01:46:42.469Z,33.35
2022-07-31T01:49:09.538Z,33.70
2022-07-31T01:51:36.657Z,31.50
2022-07-31T01:54:03.831Z,34.03
2022-07-31T01:56:32.323Z,29.60
2022-07-31T01:59:00.316Z,27.08
2022-07-31T02:01:28.700Z,27.80
2022-07-31T02:03:57.583Z,23.73
2022-07-31T02:06:27.629Z,23.20
2022-07-31T02:08:55.899Z,26.60
2022-07-31T02:11:22.759Z,26.90
2022-07-31T02:13:50.230Z,20.20
2022-07-31T02:16:18.990Z,23.08
2022-07-31T02:18:48.801Z,23.67
2022-07-31T02:21:15.917Z,27.60
2022-07-31T02:23:42.693Z,22.95
2022-07-31T02:26:09.563Z,23.27
2022-07-31T02:28:38.588Z,22.27
2022-07-31T02:31:06.965Z,21.25
2022-07-31T02:33:33.771Z,21.10
2022-07-31T02:36:01.436Z,23.50
2022-07-31T02:38:28.645Z,25.30
2022-07-31T02:40:58.385Z,19.85
2022-07-31T02:43:26.808Z,27.45
2022-07-31T02:45:55.182Z,22.58
2022-07-31T02:48:22.194Z,23.10
2022-07-31T02:50:49.074Z,25.05
2022-07-31T02:53:15.915Z,21.15
2022-07-31T02:55:45.070Z,26.92
2022-07-31T02:58:11.953Z,23.30
2022-07-31T03:00:38.860Z,27.35
2022-07-31T03:03:06.432Z,26.08
2022-07-31T03:05:33.210Z,24.60
2022-07-31T03:07:59.977Z,28.92
2022-07-31T03:10:27.280Z,30.08
2022-07-31T03:12:54.726Z,25.67
2022-07-31T03:15:24.272Z,28.45
2022-07-31T03:17:51.396Z,32.35
2022-07-31T03:20:18.324Z,47.47
2022-07-31T03:22:45.914Z,37.38
2022-07-31T03:25:21.660Z,35.92
2022-07-31T03:27:55.572Z,38.85
2022-07-31T03:30:27.269Z,38.20
2022-07-31T03:32:57.152Z,38.88
2022-07-31T03:35:25.382Z,34.05
2022-07-31T03:37:52.433Z,39.28
2022-07-31T03:40:19.520Z,33.60
2022-07-31T03:42:47.840Z,48.78
2022-07-31T03:45:15.315Z,30.50
2022-07-31T03:47:42.228Z,31.90
2022-07-31T03:50:09.265Z,34.40
2022-07-31T03:52:36.350Z,27.38
2022-07-31T03:55:03.198Z,31.75
2022-07-31T03:57:31.278Z,30.27
2022-07-31T04:00:03.078Z,27.20
2022-07-31T04:02:30.271Z,32.67
2022-07-31T04:04:58.832Z,34.33
2022-07-31T04:07:25.884Z,27.30
2022-07-31T04:09:53.200Z,34.40
2022-07-31T04:12:19.944Z,31.45
2022-07-31T04:14:47.003Z,34.33
2022-07-31T04:17:13.892Z,29.35
2022-07-31T04:19:40.741Z,38.92
2022-07-31T04:22:08.210Z,104.57
2022-07-31T04:24:35.345Z,90.50
2022-07-31T04:27:02.177Z,62.42
2022-07-31T04:29:29.644Z,66.38
2022-07-31T04:31:57.256Z,52.20
2022-07-31T04:34:24.057Z,50.30
2022-07-31T04:36:50.800Z,33.83
2022-07-31T04:39:17.540Z,27.80
2022-07-31T04:41:44.488Z,23.98
2022-07-31T04:44:11.624Z,32.83
2022-07-31T04:46:38.485Z,24.83
2022-07-31T04:49:05.279Z,27.73
2022-07-31T04:51:32.260Z,31.30
2022-07-31T04:53:58.979Z,24.75
2022-07-31T04:56:36.150Z,26.35
2022-07-31T04:59:08.101Z,26.15
2022-07-31T05:01:35.245Z,24.83
2022-07-31T05:04:02.071Z,23.50
2022-07-31T05:06:45.931Z,26.50
2022-07-31T05:09:18.841Z,27.60
2022-07-31T05:11:47.384Z,25.48
2022-07-31T05:14:16.781Z,28.60
2022-07-31T05:16:43.804Z,24.25
2022-07-31T05:19:13.852Z,19.50
2022-07-31T05:21:53.325Z,23.73
2022-07-31T05:24:32.574Z,25.13
2022-07-31T05:27:04.579Z,23.95
2022-07-31T05:29:32.264Z,22.85
2022-07-31T05:32:00.815Z,24.95
2022-07-31T05:34:30.157Z,23.27
2022-07-31T05:37:03.642Z,25.23
2022-07-31T05:39:30.811Z,19.52
2022-07-31T05:41:57.653Z,21.48
2022-07-31T05:44:24.762Z,24.30
2022-07-31T05:49:17.682Z,20.40
2022-07-31T05:51:45.144Z,18.98
2022-07-31T05:54:11.906Z,19.05
2022-07-31T05:56:38.708Z,21.05
2022-07-31T05:59:05.613Z,22.30
2022-07-31T06:01:32.404Z,19.35
2022-07-31T06:03:59.148Z,14.70
2022-07-31T06:06:26.060Z,17.75
2022-07-31T06:08:52.975Z,15.95
2022-07-31T06:11:19.888Z,17.17
2022-07-31T06:13:46.716Z,22.95
2022-07-31T06:16:14.827Z,19.63
2022-07-31T06:18:42.214Z,18.63
2022-07-31T06:21:08.975Z,18.90
2022-07-31T06:23:35.685Z,16.95
2022-07-31T06:26:02.609Z,16.90
2022-07-31T06:28:47.745Z,19.08
2022-07-31T06:31:20.011Z,16.98
2022-07-31T06:33:48.035Z,16.00
2022-07-31T06:36:15.071Z,16.30
2022-07-31T06:38:41.810Z,18.75
2022-07-31T06:41:08.583Z,22.02
2022-07-31T06:43:35.301Z,17.70
2022-07-31T06:46:02.018Z,15.57
2022-07-31T06:48:28.730Z,18.77
2022-07-31T06:51:14.620Z,19.38
2022-07-31T06:53:42.344Z,18.23
2022-07-31T06:56:09.138Z,20.00
2022-07-31T06:58:35.818Z,15.32
2022-07-31T07:01:02.528Z,16.40
2022-07-31T07:03:29.295Z,16.63
2022-07-31T07:05:56.040Z,18.08
2022-07-31T07:08:22.813Z,21.90
2022-07-31T07:10:49.518Z,17.52
2022-07-31T07:13:16.294Z,21.30
2022-07-31T07:15:42.964Z,16.60
2022-07-31T07:18:09.672Z,19.95
2022-07-31T07:20:36.376Z,19.23
2022-07-31T07:23:03.694Z,17.35
2022-07-31T07:25:30.598Z,19.63
2022-07-31T07:27:57.343Z,16.85
2022-07-31T07:30:25.199Z,16.10
2022-07-31T07:32:51.889Z,15.57
2022-07-31T07:35:18.609Z,18.73
2022-07-31T07:37:45.382Z,16.27
2022-07-31T07:40:12.282Z,19.85
2022-07-31T07:42:38.944Z,15.35
2022-07-31T07:45:06.769Z,19.65
2022-07-31T07:48:02.331Z,18.05
2022-07-31T07:50:26.680Z,12.68
2022-07-31T07:52:54.246Z,12.10
2022-07-31T07:55:20.938Z,15.25
2022-07-31T07:57:47.643Z,14.30
2022-07-31T08:00:14.849Z,13.23
2022-07-31T08:02:42.687Z,13.02
2022-07-31T08:05:09.563Z,11.82
2022-07-31T08:07:41.782Z,16.58
2022-07-31T08:10:09.790Z,15.18
2022-07-31T08:12:37.089Z,13.00
2022-07-31T08:15:05.614Z,18.73
2022-07-31T08:17:32.364Z,12.38
2022-07-31T08:19:59.069Z,11.02
2022-07-31T08:22:25.906Z,15.15
2022-07-31T08:24:52.759Z,12.60
2022-07-31T08:27:40.010Z,14.60
2022-07-31T08:30:08.338Z,14.38
2022-07-31T08:32:35.136Z,16.58
2022-07-31T08:35:02.342Z,16.15
2022-07-31T08:37:52.364Z,10.40
2022-07-31T08:40:18.119Z,12.63
2022-07-31T08:42:46.342Z,11.27
2022-07-31T08:45:13.957Z,15.57
2022-07-31T08:47:42.067Z,11.55
2022-07-31T08:50:10.375Z,10.13
2022-07-31T08:52:37.665Z,11.77
2022-07-31T08:55:07.925Z,14.00
2022-07-31T08:57:36.153Z,13.90
2022-07-31T09:00:07.355Z,15.80
2022-07-31T09:02:34.176Z,18.33
2022-07-31T09:05:00.875Z,17.95
2022-07-31T09:07:27.654Z,12.65
2022-07-31T09:09:54.405Z,11.75
2022-07-31T09:12:34.051Z,15.95
2022-07-31T09:15:01.436Z,14.20
2022-07-31T09:17:35.177Z,13.77
2022-07-31T09:20:03.808Z,13.38
2022-07-31T09:22:31.369Z,13.25
2022-07-31T09:25:12.523Z,15.98
2022-07-31T09:27:39.301Z,18.23
2022-07-31T09:30:07.528Z,18.77
2022-07-31T09:32:34.381Z,20.65
2022-07-31T09:35:13.291Z,18.55
2022-07-31T09:37:40.601Z,20.08
2022-07-31T09:40:09.298Z,12.75
2022-07-31T09:42:45.993Z,19.05
2022-07-31T09:45:23.383Z,29.15
2022-07-31T09:48:14.366Z,15.40
2022-07-31T09:50:58.102Z,10.85
2022-07-31T09:53:24.879Z,14.40
2022-07-31T09:55:55.558Z,13.25
2022-07-31T09:58:23.381Z,10.50
2022-07-31T10:00:54.099Z,12.32
2022-07-31T10:03:21.434Z,17.10
2022-07-31T10:05:48.260Z,18.02
2022-07-31T10:08:17.267Z,23.73
2022-07-31T10:10:44.509Z,23.70
2022-07-31T10:13:15.465Z,16.38
2022-07-31T10:15:45.148Z,24.95
2022-07-31T10:18:11.861Z,16.17
2022-07-31T10:20:39.895Z,16.10
2022-07-31T10:23:10.069Z,14.40
2022-07-31T10:25:39.396Z,16.35
2022-07-31T10:28:07.598Z,12.65
2022-07-31T10:30:36.545Z,11.57
2022-07-31T10:33:13.744Z,14.20
2022-07-31T10:36:02.082Z,15.25
2022-07-31T10:38:38.139Z,13.05
2022-07-31T10:41:40.512Z,16.70
2022-07-31T10:44:13.025Z,12.30
2022-07-31T10:46:39.713Z,15.00
2022-07-31T10:49:08.527Z,11.60
2022-07-31T10:51:46.615Z,13.70
2022-07-31T10:54:14.325Z,11.98
2022-07-31T10:56:44.998Z,15.20
2022-07-31T10:59:13.058Z,14.80
2022-07-31T11:01:53.238Z,18.42
2022-07-31T11:04:27.967Z,13.75
2022-07-31T11:06:54.697Z,11.52
2022-07-31T11:09:26.242Z,17.50
2022-07-31T11:11:53.780Z,11.88
2022-07-31T11:14:38.992Z,16.38
2022-07-31T11:17:05.994Z,18.83
2022-07-31T11:19:43.647Z,14.50
2022-07-31T11:22:30.997Z,16.10
2022-07-31T11:24:59.166Z,13.80
2022-07-31T11:27:33.051Z,13.55
2022-07-31T11:30:12.407Z,15.63
2022-07-31T11:32:40.382Z,17.10
2022-07-31T11:35:07.677Z,9.55
2022-07-31T11:37:56.195Z,14.27
2022-07-31T11:40:22.472Z,12.55
2022-07-31T11:43:23.238Z,13.05
2022-07-31T11:45:52.746Z,11.52
2022-07-31T11:48:21.159Z,11.15
2022-07-31T11:50:49.772Z,11.50
2022-07-31T11:53:17.661Z,11.40
2022-07-31T11:55:54.396Z,11.48
2022-07-31T11:58:22.672Z,12.75
2022-07-31T12:01:00.756Z,15.93
2022-07-31T12:03:33.446Z,9.82
2022-07-31T12:06:00.499Z,12.13
2022-07-31T12:08:27.657Z,13.52
2022-07-31T12:11:00.039Z,11.45
2022-07-31T12:13:27.568Z,15.15
2022-07-31T12:16:05.046Z,13.50
2022-07-31T12:18:45.326Z,12.32
2022-07-31T12:21:12.124Z,10.95
2022-07-31T12:23:47.435Z,13.35
2022-07-31T12:26:22.086Z,11.23
2022-07-31T12:31:53.876Z,12.15
2022-07-31T12:34:35.212Z,15.30
2022-07-31T12:37:07.587Z,12.55
2022-07-31T12:40:00.572Z,10.05
2022-07-31T12:42:31.225Z,14.50
2022-07-31T12:45:18.017Z,10.25
2022-07-31T12:47:51.809Z,8.75
2022-07-31T12:50:20.536Z,11.30
2022-07-31T12:52:47.394Z,10.25
2022-07-31T12:55:17.103Z,15.75
2022-07-31T12:57:51.453Z,12.80
2022-07-31T13:00:20.259Z,11.73
2022-07-31T13:02:47.122Z,12.70
2022-07-31T13:05:13.804Z,13.32
2022-07-31T13:07:40.620Z,9.95
2022-07-31T13:10:14.867Z,11.77
2022-07-31T13:12:50.360Z,10.48
2022-07-31T13:15:18.235Z,10.02
2022-07-31T13:17:50.472Z,10.45
2022-07-31T13:20:18.308Z,11.05
2022-07-31T13:22:45.175Z,11.98
2022-07-31T13:25:11.958Z,13.95
2022-07-31T13:27:38.696Z,9.57
2022-07-31T13:30:06.005Z,11.20
2022-07-31T13:32:32.940Z,9.60
2022-07-31T13:35:26.485Z,14.23
2022-07-31T13:37:47.016Z,13.75
2022-07-31T13:40:14.369Z,12.70
2022-07-31T13:42:41.041Z,9.43
2022-07-31T13:45:08.801Z,11.02
2022-07-31T13:47:50.508Z,10.32
2022-07-31T13:50:18.937Z,14.00
2022-07-31T13:52:45.681Z,10.25
2022-07-31T13:55:12.420Z,14.18
2022-07-31T13:57:39.104Z,12.38
2022-07-31T14:00:06.696Z,12.57
2022-07-31T14:02:33.454Z,14.13
2022-07-31T14:05:00.285Z,15.73
2022-07-31T14:07:45.204Z,10.35
2022-07-31T14:10:19.878Z,11.05
2022-07-31T14:12:47.347Z,15.05
2022-07-31T14:15:14.105Z,12.38
2022-07-31T14:17:40.821Z,11.55
2022-07-31T14:20:08.309Z,13.30
2022-07-31T14:22:35.008Z,13.43
2022-07-31T14:25:01.717Z,12.43
2022-07-31T14:27:28.485Z,14.60
2022-07-31T14:29:55.366Z,13.77
2022-07-31T14:32:22.542Z,15.90
2022-07-31T14:34:50.176Z,13.70
2022-07-31T14:37:17.022Z,11.48
2022-07-31T14:39:43.953Z,10.70
2022-07-31T14:42:11.546Z,12.23
2022-07-31T14:44:41.855Z,10.95
2022-07-31T14:47:10.056Z,12.55
2022-07-31T14:50:07.985Z,10.23
2022-07-31T14:52:23.781Z,15.23
2022-07-31T14:54:50.486Z,13.18
2022-07-31T14:57:20.055Z,12.93
2022-07-31T14:59:50.084Z,16.88
2022-07-31T15:02:21.864Z,14.52
2022-07-31T15:04:49.370Z,20.98
2022-07-31T15:07:34.758Z,35.05
2022-07-31T15:10:04.717Z,33.00
2022-07-31T15:12:32.001Z,33.53
2022-07-31T15:14:58.866Z,33.65
2022-07-31T15:17:25.620Z,31.48
2022-07-31T15:19:52.560Z,30.02
2022-07-31T15:22:19.474Z,33.97
2022-07-31T15:24:49.482Z,34.17
2022-07-31T15:27:21.966Z,38.45
2022-07-31T15:30:00.441Z,44.28
2022-07-31T15:32:38.408Z,21.25
2022-07-31T15:35:08.351Z,19.90
2022-07-31T15:37:36.882Z,20.58
2022-07-31T15:40:09.036Z,19.48
2022-07-31T15:42:42.954Z,21.88
2022-07-31T15:45:15.133Z,29.90
2022-07-31T15:47:42.984Z,23.58
2022-07-31T15:50:11.058Z,30.60
2022-07-31T15:52:37.796Z,26.08
2022-07-31T15:55:05.516Z,28.67
2022-07-31T15:57:32.349Z,23.65
2022-07-31T15:59:59.277Z,31.10
2022-07-31T16:02:27.037Z,26.25
2022-07-31T16:04:56.579Z,27.92
2022-07-31T16:08:34.034Z,27.42
2022-07-31T16:10:17.887Z,26.85
2022-07-31T16:12:46.299Z,26.63
2022-07-31T16:15:13.924Z,28.00
2022-07-31T16:17:41.343Z,23.42
2022-07-31T16:20:13.061Z,24.58
2022-07-31T16:22:51.245Z,26.02
2022-07-31T16:25:21.970Z,26.55
2022-07-31T16:27:48.731Z,21.95
2022-07-31T16:30:15.568Z,22.55
2022-07-31T16:32:43.188Z,31.45
2022-07-31T16:35:10.479Z,24.13
2022-07-31T16:37:49.953Z,20.73
2022-07-31T16:40:30.599Z,40.13
2022-07-31T16:43:02.991Z,26.50
2022-07-31T16:45:49.378Z,26.80
2022-07-31T16:48:16.187Z,27.00
2022-07-31T16:50:42.890Z,29.85
2022-07-31T16:53:09.637Z,31.30
2022-07-31T16:55:51.570Z,28.05
2022-07-31T16:58:27.486Z,32.67
2022-07-31T17:00:54.613Z,33.20
2022-07-31T17:04:00.294Z,35.63
2022-07-31T17:06:11.545Z,29.35
2022-07-31T17:08:38.434Z,27.38
2022-07-31T17:11:05.510Z,31.08
2022-07-31T17:13:32.549Z,23.33
2022-07-31T17:15:59.237Z,25.60
2022-07-31T17:18:26.159Z,33.85
2022-07-31T17:20:56.014Z,32.63
2022-07-31T17:23:27.766Z,35.90
2022-07-31T17:26:21.627Z,32.92
2022-07-31T17:28:50.690Z,30.38
2022-07-31T17:31:18.982Z,39.75
2022-07-31T17:33:58.543Z,43.17
2022-07-31T17:36:26.813Z,29.63
2022-07-31T17:38:53.569Z,32.47
2022-07-31T17:41:24.999Z,32.10
2022-07-31T17:43:53.564Z,34.70
2022-07-31T17:46:22.082Z,37.20
2022-07-31T17:49:11.759Z,31.20
2022-07-31T17:51:57.656Z,31.80
2022-07-31T17:54:31.047Z,22.92
2022-07-31T17:56:58.664Z,27.92
2022-07-31T17:59:26.003Z,19.70
2022-07-31T18:01:54.865Z,24.58
2022-07-31T18:06:54.524Z,16.95
2022-07-31T18:09:23.500Z,15.93
2022-07-31T18:11:51.798Z,17.30
2022-07-31T18:14:19.050Z,14.88
2022-07-31T18:16:46.157Z,17.67
2022-07-31T18:19:13.373Z,14.52
2022-07-31T18:21:40.336Z,16.70
2022-07-31T18:24:07.423Z,15.23
2022-07-31T18:26:35.417Z,16.45
2022-07-31T18:29:02.256Z,11.82
2022-07-31T18:31:34.802Z,16.77
2022-07-31T18:34:06.044Z,19.13
2022-07-31T18:36:33.921Z,18.67
2022-07-31T18:39:01.100Z,19.10
2022-07-31T18:41:27.852Z,19.13
2022-07-31T18:43:54.852Z,16.40
2022-07-31T18:46:23.726Z,15.40
2022-07-31T18:51:23.227Z,17.17
2022-07-31T18:53:50.272Z,20.30
2022-07-31T18:56:16.993Z,17.48
2022-07-31T18:58:43.795Z,18.38
2022-07-31T19:01:10.878Z,23.60
2022-07-31T19:03:37.841Z,19.08
2022-07-31T19:06:04.819Z,17.00
2022-07-31T19:08:31.510Z,15.73
2022-07-31T19:10:58.431Z,15.80
2022-07-31T19:13:25.145Z,14.75
2022-07-31T19:15:53.094Z,21.83
2022-07-31T19:18:28.182Z,13.70
2022-07-31T19:21:19.164Z,17.85
2022-07-31T19:23:46.437Z,14.07
2022-07-31T19:26:13.183Z,11.80
2022-07-31T19:28:40.261Z,13.40
2022-07-31T19:31:07.274Z,12.88
2022-07-31T19:33:34.061Z,14.13
2022-07-31T19:36:02.577Z,17.80
2022-07-31T19:41:00.080Z,13.20
2022-07-31T19:43:26.894Z,13.45
2022-07-31T19:46:00.367Z,16.90
2022-07-31T19:48:39.751Z,15.88
2022-07-31T19:51:06.502Z,16.42
2022-07-31T19:53:33.273Z,16.90
2022-07-31T19:56:02.009Z,13.30
2022-07-31T19:58:28.698Z,20.13
2022-07-31T20:00:55.373Z,20.80
2022-07-31T20:03:22.202Z,17.25
2022-07-31T20:05:48.997Z,15.10
2022-07-31T20:08:15.726Z,15.30
2022-07-31T20:10:42.406Z,13.65
2022-07-31T20:13:09.233Z,13.73
2022-07-31T20:15:52.121Z,17.17
2022-07-31T20:18:27.399Z,17.45
2022-07-31T20:21:00.273Z,19.35
2022-07-31T20:23:27.479Z,17.67
2022-07-31T20:25:54.344Z,19.52
2022-07-31T20:28:21.397Z,17.08
2022-07-31T20:30:48.137Z,14.55
2022-07-31T20:33:14.930Z,20.42
2022-07-31T20:35:48.768Z,23.52
2022-07-31T20:40:54.266Z,20.42
2022-07-31T20:43:26.309Z,23.73
2022-07-31T20:45:54.514Z,22.25
2022-07-31T20:48:24.479Z,18.90
2022-07-31T20:50:52.056Z,18.80
2022-07-31T20:53:19.634Z,20.05
2022-07-31T20:55:49.446Z,18.70
2022-07-31T20:58:20.684Z,24.45
2022-07-31T21:00:48.505Z,23.15
2022-07-31T21:03:16.200Z,19.80
2022-07-31T21:05:43.328Z,19.13
2022-07-31T21:08:11.222Z,19.80
2022-07-31T21:10:38.585Z,25.77
2022-07-31T21:13:05.247Z,19.15
2022-07-31T21:15:42.608Z,25.23
2022-07-31T21:18:15.998Z,22.92
2022-07-31T21:20:51.678Z,26.70
2022-07-31T21:23:24.594Z,17.65
2022-07-31T21:25:52.587Z,17.27
2022-07-31T21:28:20.244Z,19.23
2022-07-31T21:30:47.261Z,17.10
2022-07-31T21:33:14.557Z,19.35
2022-07-31T21:35:41.549Z,21.10
2022-07-31T21:38:11.846Z,17.38
2022-07-31T21:40:39.574Z,17.23
2022-07-31T21:43:06.601Z,21.38
2022-07-31T21:45:38.439Z,22.40
2022-07-31T21:48:16.046Z,22.00
2022-07-31T21:50:44.398Z,19.20
2022-07-31T21:53:12.182Z,22.67
2022-07-31T21:55:39.576Z,16.92
2022-07-31T21:58:07.046Z,20.73
2022-07-31T22:00:37.119Z,19.50
2022-07-31T22:03:04.396Z,19.83
2022-07-31T22:05:49.929Z,25.85
2022-07-31T22:08:17.345Z,18.83
2022-07-31T22:10:44.191Z,20.42
2022-07-31T22:13:10.947Z,24.52
2022-07-31T22:15:58.941Z,18.58
2022-07-31T22:18:26.328Z,17.67
2022-07-31T22:20:53.898Z,19.55
2022-07-31T22:23:20.874Z,17.60
2022-07-31T22:25:49.249Z,16.55
2022-07-31T22:28:17.613Z,18.48
2022-07-31T22:30:44.632Z,17.15
2022-07-31T22:33:11.468Z,19.05
2022-07-31T22:35:38.517Z,22.25
2022-07-31T22:38:05.232Z,17.55
2022-07-31T22:40:32.183Z,22.00
2022-07-31T22:42:59.671Z,19.48
2022-07-31T22:45:29.726Z,21.08
2022-07-31T22:47:57.606Z,15.60
2022-07-31T22:50:25.132Z,38.92
2022-07-31T22:52:52.766Z,24.70
2022-07-31T22:55:19.625Z,25.90
2022-07-31T22:57:46.468Z,24.55
2022-07-31T23:00:14.801Z,21.10
2022-07-31T23:02:42.627Z,25.02
2022-07-31T23:05:09.682Z,21.40
2022-07-31T23:07:36.746Z,19.23
2022-07-31T23:10:05.508Z,24.73
2022-07-31T23:12:32.330Z,19.20
2022-07-31T23:14:59.064Z,17.92
2022-07-31T23:17:25.886Z,21.83
2022-07-31T23:19:54.132Z,23.20
2022-07-31T23:22:33.403Z,20.13
2022-07-31T23:25:05.083Z,23.50
2022-07-31T23:27:33.023Z,18.95
2022-07-31T23:30:00.098Z,20.65
2022-07-31T23:32:27.961Z,24.27
2022-07-31T23:34:54.702Z,17.90
2022-07-31T23:37:21.625Z,18.77
2022-07-31T23:39:48.345Z,17.35
2022-07-31T23:42:33.675Z,18.75
2022-07-31T23:45:00.410Z,23.70
2022-07-31T23:47:45.252Z,24.33
2022-07-31T23:50:14.577Z,20.17
2022-07-31T23:52:44.927Z,17.35
2022-07-31T23:55:12.114Z,21.10
2022-07-31T23:57:39.877Z,19.27
